sensor_id;sensor_type;location;lat;lon;timestamp;temperature;humidity
13854;DHT22;6997;51.782;8.824;2023-01-19T00:01:36;-0.30;99.90
13854;DHT22;6997;51.782;8.824;2023-01-19T00:06:28;-0.40;99.90
13854;DHT22;6997;51.782;8.824;2023-01-19T00:11:20;-0.50;99.90
13854;DHT22;6997;51.782;8.824;2023-01-19T00:13:45;-0.50;99.90
13854;DHT22;6997;51.782;8.824;2023-01-19T00:16:15;-0.50;99.90
13854;DHT22;6997;51.782;8.824;2023-01-19T00:21:12;-0.50;99.90
13854;DHT22;6997;51.782;8.824;2023-01-19T00:23:41;-0.40;99.90
13854;DHT22;6997;51.782;8.824;2023-01-19T00:26:08;-0.40;99.90
13854;DHT22;6997;51.782;8.824;2023-01-19T00:28:35;-0.40;99.90
13854;DHT22;6997;51.782;8.824;2023-01-19T00:31:01;-0.30;99.90
13854;DHT22;6997;51.782;8.824;2023-01-19T00:33:29;-0.20;99.90
13854;DHT22;6997;51.782;8.824;2023-01-19T00:40:47;-0.10;99.90
13854;DHT22;6997;51.782;8.824;2023-01-19T00:43:13;0.00;99.90
13854;DHT22;6997;51.782;8.824;2023-01-19T00:48:05;0.20;99.90
13854;DHT22;6997;51.782;8.824;2023-01-19T00:50:32;0.30;99.90
13854;DHT22;6997;51.782;8.824;2023-01-19T00:53:00;0.30;99.90
13854;DHT22;6997;51.782;8.824;2023-01-19T00:55:30;0.30;99.90
13854;DHT22;6997;51.782;8.824;2023-01-19T00:57:57;0.40;99.90
13854;DHT22;6997;51.782;8.824;2023-01-19T01:00:23;0.40;99.90
13854;DHT22;6997;51.782;8.824;2023-01-19T01:02:51;0.40;99.90
13854;DHT22;6997;51.782;8.824;2023-01-19T01:05:18;0.50;99.90
13854;DHT22;6997;51.782;8.824;2023-01-19T01:07:43;0.50;99.90
13854;DHT22;6997;51.782;8.824;2023-01-19T01:12:45;0.60;99.90
13854;DHT22;6997;51.782;8.824;2023-01-19T01:15:12;0.60;99.90
13854;DHT22;6997;51.782;8.824;2023-01-19T01:20:16;0.50;99.90
13854;DHT22;6997;51.782;8.824;2023-01-19T01:22:48;0.50;99.90
13854;DHT22;6997;51.782;8.824;2023-01-19T01:25:16;0.50;99.90
13854;DHT22;6997;51.782;8.824;2023-01-19T01:30:12;0.50;99.90
13854;DHT22;6997;51.782;8.824;2023-01-19T01:32:41;0.40;99.90
13854;DHT22;6997;51.782;8.824;2023-01-19T01:35:09;0.30;99.90
13854;DHT22;6997;51.782;8.824;2023-01-19T01:37:37;0.30;99.90
13854;DHT22;6997;51.782;8.824;2023-01-19T01:40:04;0.30;99.90
13854;DHT22;6997;51.782;8.824;2023-01-19T01:42:32;0.30;99.90
13854;DHT22;6997;51.782;8.824;2023-01-19T01:45:00;0.40;99.90
13854;DHT22;6997;51.782;8.824;2023-01-19T01:50:20;0.30;99.90
13854;DHT22;6997;51.782;8.824;2023-01-19T01:52:51;0.30;99.90
13854;DHT22;6997;51.782;8.824;2023-01-19T01:55:20;0.40;99.90
13854;DHT22;6997;51.782;8.824;2023-01-19T01:57:50;0.30;99.90
13854;DHT22;6997;51.782;8.824;2023-01-19T02:00:17;0.30;99.90
13854;DHT22;6997;51.782;8.824;2023-01-19T02:02:44;0.40;99.90
13854;DHT22;6997;51.782;8.824;2023-01-19T02:05:29;0.40;99.90
13854;DHT22;6997;51.782;8.824;2023-01-19T02:08:36;0.40;99.90
13854;DHT22;6997;51.782;8.824;2023-01-19T02:11:22;0.40;99.90
13854;DHT22;6997;51.782;8.824;2023-01-19T02:14:06;0.40;99.90
13854;DHT22;6997;51.782;8.824;2023-01-19T02:16:32;0.40;99.90
13854;DHT22;6997;51.782;8.824;2023-01-19T02:18:59;0.40;99.90
13854;DHT22;6997;51.782;8.824;2023-01-19T02:24:31;0.50;99.90
13854;DHT22;6997;51.782;8.824;2023-01-19T02:29:24;0.50;99.90
13854;DHT22;6997;51.782;8.824;2023-01-19T02:31:50;0.60;99.90
13854;DHT22;6997;51.782;8.824;2023-01-19T02:34:19;0.60;99.90
13854;DHT22;6997;51.782;8.824;2023-01-19T02:37:10;0.60;99.90
13854;DHT22;6997;51.782;8.824;2023-01-19T02:39:45;0.70;99.90
13854;DHT22;6997;51.782;8.824;2023-01-19T02:42:26;0.60;99.90
13854;DHT22;6997;51.782;8.824;2023-01-19T02:44:54;0.60;99.90
13854;DHT22;6997;51.782;8.824;2023-01-19T02:47:20;0.70;99.90
13854;DHT22;6997;51.782;8.824;2023-01-19T02:49:59;0.70;99.90
13854;DHT22;6997;51.782;8.824;2023-01-19T02:52:25;0.70;99.90
13854;DHT22;6997;51.782;8.824;2023-01-19T02:55:13;0.70;99.90
13854;DHT22;6997;51.782;8.824;2023-01-19T03:03:10;0.70;99.90
13854;DHT22;6997;51.782;8.824;2023-01-19T03:05:44;0.70;99.90
13854;DHT22;6997;51.782;8.824;2023-01-19T03:11:10;0.70;99.90
13854;DHT22;6997;51.782;8.824;2023-01-19T03:13:57;0.70;99.90
13854;DHT22;6997;51.782;8.824;2023-01-19T03:16:30;0.70;99.90
13854;DHT22;6997;51.782;8.824;2023-01-19T03:19:14;0.80;99.90
13854;DHT22;6997;51.782;8.824;2023-01-19T03:21:45;0.80;99.90
13854;DHT22;6997;51.782;8.824;2023-01-19T03:24:16;0.80;99.90
13854;DHT22;6997;51.782;8.824;2023-01-19T03:26:46;0.90;99.90
13854;DHT22;6997;51.782;8.824;2023-01-19T03:29:14;0.90;99.90
13854;DHT22;6997;51.782;8.824;2023-01-19T03:31:44;0.80;99.90
13854;DHT22;6997;51.782;8.824;2023-01-19T03:34:15;4.00;99.90
13854;DHT22;6997;51.782;8.824;2023-01-19T03:36:48;1.00;99.90
13854;DHT22;6997;51.782;8.824;2023-01-19T03:39:21;1.10;99.90
13854;DHT22;6997;51.782;8.824;2023-01-19T03:41:55;1.10;99.90
13854;DHT22;6997;51.782;8.824;2023-01-19T03:44:26;1.10;99.90
13854;DHT22;6997;51.782;8.824;2023-01-19T03:46:52;1.10;99.90
13854;DHT22;6997;51.782;8.824;2023-01-19T03:51:46;1.00;99.90
13854;DHT22;6997;51.782;8.824;2023-01-19T03:56:39;1.00;99.90
13854;DHT22;6997;51.782;8.824;2023-01-19T04:01:31;1.00;99.90
13854;DHT22;6997;51.782;8.824;2023-01-19T04:08:50;1.00;99.90
13854;DHT22;6997;51.782;8.824;2023-01-19T04:16:10;1.10;99.90
13854;DHT22;6997;51.782;8.824;2023-01-19T04:21:05;0.90;99.90
13854;DHT22;6997;51.782;8.824;2023-01-19T04:23:31;1.10;99.90
13854;DHT22;6997;51.782;8.824;2023-01-19T04:26:02;1.10;99.90
13854;DHT22;6997;51.782;8.824;2023-01-19T04:28:28;1.10;99.90
13854;DHT22;6997;51.782;8.824;2023-01-19T04:30:55;1.20;99.90
13854;DHT22;6997;51.782;8.824;2023-01-19T04:33:21;1.20;99.90
13854;DHT22;6997;51.782;8.824;2023-01-19T04:35:48;1.20;99.90
13854;DHT22;6997;51.782;8.824;2023-01-19T04:38:14;1.10;99.90
13854;DHT22;6997;51.782;8.824;2023-01-19T04:40:40;1.10;99.90
13854;DHT22;6997;51.782;8.824;2023-01-19T04:45:32;1.20;99.90
13854;DHT22;6997;51.782;8.824;2023-01-19T04:47:57;1.20;99.90
13854;DHT22;6997;51.782;8.824;2023-01-19T04:50:23;1.20;99.90
13854;DHT22;6997;51.782;8.824;2023-01-19T04:52:52;1.20;99.90
13854;DHT22;6997;51.782;8.824;2023-01-19T05:00:10;1.20;99.90
13854;DHT22;6997;51.782;8.824;2023-01-19T05:05:03;1.20;99.90
13854;DHT22;6997;51.782;8.824;2023-01-19T05:07:28;1.20;99.90
13854;DHT22;6997;51.782;8.824;2023-01-19T05:09:54;1.20;99.90
13854;DHT22;6997;51.782;8.824;2023-01-19T05:12:20;1.20;99.90
13854;DHT22;6997;51.782;8.824;2023-01-19T05:17:12;1.20;99.90
13854;DHT22;6997;51.782;8.824;2023-01-19T05:22:05;1.20;99.90
13854;DHT22;6997;51.782;8.824;2023-01-19T05:24:32;1.20;99.90
13854;DHT22;6997;51.782;8.824;2023-01-19T05:27:13;1.20;99.90
13854;DHT22;6997;51.782;8.824;2023-01-19T05:29:38;1.30;99.90
13854;DHT22;6997;51.782;8.824;2023-01-19T05:32:04;1.20;99.90
13854;DHT22;6997;51.782;8.824;2023-01-19T05:36:56;1.20;99.90
13854;DHT22;6997;51.782;8.824;2023-01-19T05:39:23;1.20;99.90
13854;DHT22;6997;51.782;8.824;2023-01-19T05:41:52;1.30;99.90
13854;DHT22;6997;51.782;8.824;2023-01-19T05:49:11;1.30;99.90
13854;DHT22;6997;51.782;8.824;2023-01-19T05:51:37;1.30;99.90
13854;DHT22;6997;51.782;8.824;2023-01-19T05:54:04;1.30;99.90
13854;DHT22;6997;51.782;8.824;2023-01-19T05:56:32;1.30;99.90
13854;DHT22;6997;51.782;8.824;2023-01-19T05:58:58;1.30;99.90
13854;DHT22;6997;51.782;8.824;2023-01-19T06:01:24;1.40;99.90
13854;DHT22;6997;51.782;8.824;2023-01-19T06:06:16;1.40;99.90
13854;DHT22;6997;51.782;8.824;2023-01-19T06:08:43;1.20;99.90
13854;DHT22;6997;51.782;8.824;2023-01-19T06:11:09;1.30;99.90
13854;DHT22;6997;51.782;8.824;2023-01-19T06:16:01;1.40;99.90
13854;DHT22;6997;51.782;8.824;2023-01-19T06:18:28;1.40;99.90
13854;DHT22;6997;51.782;8.824;2023-01-19T06:23:28;1.40;99.90
13854;DHT22;6997;51.782;8.824;2023-01-19T06:25:55;1.40;99.90
13854;DHT22;6997;51.782;8.824;2023-01-19T06:30:48;1.40;99.90
13854;DHT22;6997;51.782;8.824;2023-01-19T06:33:15;1.40;99.90
13854;DHT22;6997;51.782;8.824;2023-01-19T06:35:47;1.50;99.90
13854;DHT22;6997;51.782;8.824;2023-01-19T06:38:16;1.50;99.90
13854;DHT22;6997;51.782;8.824;2023-01-19T06:40:43;1.50;99.90
13854;DHT22;6997;51.782;8.824;2023-01-19T06:43:09;1.50;99.90
13854;DHT22;6997;51.782;8.824;2023-01-19T06:45:36;1.50;99.90
13854;DHT22;6997;51.782;8.824;2023-01-19T06:48:04;1.40;99.90
13854;DHT22;6997;51.782;8.824;2023-01-19T06:50:31;1.30;99.90
13854;DHT22;6997;51.782;8.824;2023-01-19T06:57:57;1.10;99.90
13854;DHT22;6997;51.782;8.824;2023-01-19T07:00:24;1.00;99.90
13854;DHT22;6997;51.782;8.824;2023-01-19T07:02:52;0.90;99.90
13854;DHT22;6997;51.782;8.824;2023-01-19T07:07:44;0.70;99.90
13854;DHT22;6997;51.782;8.824;2023-01-19T07:10:19;0.70;99.90
13854;DHT22;6997;51.782;8.824;2023-01-19T07:12:45;0.70;99.90
13854;DHT22;6997;51.782;8.824;2023-01-19T07:15:14;0.70;99.90
13854;DHT22;6997;51.782;8.824;2023-01-19T07:20:10;0.70;99.90
13854;DHT22;6997;51.782;8.824;2023-01-19T07:22:41;0.70;99.90
13854;DHT22;6997;51.782;8.824;2023-01-19T07:25:11;0.70;99.90
13854;DHT22;6997;51.782;8.824;2023-01-19T07:30:06;0.70;99.90
13854;DHT22;6997;51.782;8.824;2023-01-19T07:32:33;0.70;99.90
13854;DHT22;6997;51.782;8.824;2023-01-19T07:34:59;0.70;99.90
13854;DHT22;6997;51.782;8.824;2023-01-19T07:37:24;0.60;99.90
13854;DHT22;6997;51.782;8.824;2023-01-19T08:44:46;0.40;99.90
13854;DHT22;6997;51.782;8.824;2023-01-19T08:47:11;0.50;99.90
13854;DHT22;6997;51.782;8.824;2023-01-19T08:49:37;0.50;99.90
13854;DHT22;6997;51.782;8.824;2023-01-19T08:52:03;0.60;99.90
13854;DHT22;6997;51.782;8.824;2023-01-19T08:54:29;0.60;99.90
13854;DHT22;6997;51.782;8.824;2023-01-19T08:56:54;0.50;99.90
13854;DHT22;6997;51.782;8.824;2023-01-19T09:01:47;0.60;99.90
13854;DHT22;6997;51.782;8.824;2023-01-19T09:04:12;0.50;99.90
13854;DHT22;6997;51.782;8.824;2023-01-19T09:06:38;0.60;99.90
13854;DHT22;6997;51.782;8.824;2023-01-19T09:09:03;0.60;99.90
13854;DHT22;6997;51.782;8.824;2023-01-19T09:11:29;0.60;99.90
13854;DHT22;6997;51.782;8.824;2023-01-19T09:13:58;0.70;99.90
13854;DHT22;6997;51.782;8.824;2023-01-19T09:16:24;0.60;99.90
13854;DHT22;6997;51.782;8.824;2023-01-19T09:18:53;0.70;99.90
13854;DHT22;6997;51.782;8.824;2023-01-19T09:23:45;0.70;99.90
13854;DHT22;6997;51.782;8.824;2023-01-19T09:31:06;0.70;99.90
13854;DHT22;6997;51.782;8.824;2023-01-19T09:33:33;0.70;99.90
13854;DHT22;6997;51.782;8.824;2023-01-19T09:35:59;0.60;99.90
13854;DHT22;6997;51.782;8.824;2023-01-19T09:38:27;0.60;99.90
13854;DHT22;6997;51.782;8.824;2023-01-19T09:40:56;0.60;99.90
13854;DHT22;6997;51.782;8.824;2023-01-19T09:43:46;0.60;99.90
13854;DHT22;6997;51.782;8.824;2023-01-19T09:46:32;0.70;99.90
13854;DHT22;6997;51.782;8.824;2023-01-19T09:49:02;0.80;99.90
13854;DHT22;6997;51.782;8.824;2023-01-19T09:51:38;0.80;99.90
13854;DHT22;6997;51.782;8.824;2023-01-19T09:54:35;0.80;99.90
13854;DHT22;6997;51.782;8.824;2023-01-19T09:57:08;0.70;99.90
13854;DHT22;6997;51.782;8.824;2023-01-19T09:59:37;0.60;99.90
13854;DHT22;6997;51.782;8.824;2023-01-19T10:10:29;0.50;99.90
13854;DHT22;6997;51.782;8.824;2023-01-19T10:18:47;0.50;99.90
13854;DHT22;6997;51.782;8.824;2023-01-19T10:21:30;0.60;99.90
13854;DHT22;6997;51.782;8.824;2023-01-19T10:23:59;0.50;99.90
13854;DHT22;6997;51.782;8.824;2023-01-19T10:26:37;0.60;99.90
13854;DHT22;6997;51.782;8.824;2023-01-19T10:31:52;0.70;99.90
13854;DHT22;6997;51.782;8.824;2023-01-19T10:34:19;0.60;99.90
13854;DHT22;6997;51.782;8.824;2023-01-19T10:36:48;0.60;99.90
13854;DHT22;6997;51.782;8.824;2023-01-19T10:39:18;0.60;99.90
13854;DHT22;6997;51.782;8.824;2023-01-19T10:41:51;0.60;99.90
13854;DHT22;6997;51.782;8.824;2023-01-19T10:44:27;0.60;99.90
13854;DHT22;6997;51.782;8.824;2023-01-19T10:46:56;0.70;99.90
13854;DHT22;6997;51.782;8.824;2023-01-19T10:49:38;0.80;99.90
13854;DHT22;6997;51.782;8.824;2023-01-19T10:52:06;0.70;99.90
13854;DHT22;6997;51.782;8.824;2023-01-19T10:54:35;0.70;99.90
13854;DHT22;6997;51.782;8.824;2023-01-19T10:57:07;0.60;99.90
13854;DHT22;6997;51.782;8.824;2023-01-19T10:59:47;0.60;99.90
13854;DHT22;6997;51.782;8.824;2023-01-19T11:02:19;0.60;99.90
13854;DHT22;6997;51.782;8.824;2023-01-19T11:04:50;0.60;99.90
13854;DHT22;6997;51.782;8.824;2023-01-19T11:07:43;0.60;99.90
13854;DHT22;6997;51.782;8.824;2023-01-19T11:10:15;0.60;99.90
13854;DHT22;6997;51.782;8.824;2023-01-19T11:15:26;0.60;99.90
13854;DHT22;6997;51.782;8.824;2023-01-19T11:20:28;0.60;99.90
13854;DHT22;6997;51.782;8.824;2023-01-19T11:23:28;0.60;99.90
13854;DHT22;6997;51.782;8.824;2023-01-19T11:26:00;0.60;99.90
13854;DHT22;6997;51.782;8.824;2023-01-19T11:28:34;0.60;99.90
13854;DHT22;6997;51.782;8.824;2023-01-19T11:33:55;0.60;99.90
13854;DHT22;6997;51.782;8.824;2023-01-19T11:36:30;0.70;99.90
13854;DHT22;6997;51.782;8.824;2023-01-19T11:39:20;0.70;99.90
13854;DHT22;6997;51.782;8.824;2023-01-19T11:41:51;0.60;99.90
13854;DHT22;6997;51.782;8.824;2023-01-19T11:46:47;0.70;99.90
13854;DHT22;6997;51.782;8.824;2023-01-19T11:49:32;0.80;99.90
13854;DHT22;6997;51.782;8.824;2023-01-19T11:52:44;0.70;99.90
13854;DHT22;6997;51.782;8.824;2023-01-19T11:57:24;0.80;99.90
13854;DHT22;6997;51.782;8.824;2023-01-19T11:59:52;0.80;99.90
13854;DHT22;6997;51.782;8.824;2023-01-19T12:02:29;0.80;99.90
13854;DHT22;6997;51.782;8.824;2023-01-19T12:05:00;0.90;99.90
13854;DHT22;6997;51.782;8.824;2023-01-19T12:07:33;0.90;99.90
13854;DHT22;6997;51.782;8.824;2023-01-19T12:10:13;0.90;99.90
13854;DHT22;6997;51.782;8.824;2023-01-19T12:12:42;0.90;99.90
13854;DHT22;6997;51.782;8.824;2023-01-19T12:15:42;0.90;99.90
13854;DHT22;6997;51.782;8.824;2023-01-19T12:18:18;0.80;99.90
13854;DHT22;6997;51.782;8.824;2023-01-19T12:20:56;0.80;99.90
13854;DHT22;6997;51.782;8.824;2023-01-19T12:26:35;1.00;99.90
13854;DHT22;6997;51.782;8.824;2023-01-19T12:29:13;0.90;99.90
13854;DHT22;6997;51.782;8.824;2023-01-19T12:31:41;0.90;99.90
13854;DHT22;6997;51.782;8.824;2023-01-19T12:34:39;0.90;99.90
13854;DHT22;6997;51.782;8.824;2023-01-19T13:31:39;1.50;99.90
13854;DHT22;6997;51.782;8.824;2023-01-19T13:34:16;1.50;99.90
13854;DHT22;6997;51.782;8.824;2023-01-19T13:36:45;1.50;99.90
13854;DHT22;6997;51.782;8.824;2023-01-19T13:39:39;1.50;99.90
13854;DHT22;6997;51.782;8.824;2023-01-19T13:42:28;1.50;99.90
13854;DHT22;6997;51.782;8.824;2023-01-19T13:44:58;1.60;99.90
13854;DHT22;6997;51.782;8.824;2023-01-19T13:47:37;1.60;99.90
13854;DHT22;6997;51.782;8.824;2023-01-19T13:50:04;1.50;99.90
13854;DHT22;6997;51.782;8.824;2023-01-19T13:52:33;1.50;99.90
13854;DHT22;6997;51.782;8.824;2023-01-19T13:55:02;1.50;99.90
13854;DHT22;6997;51.782;8.824;2023-01-19T13:57:42;1.60;99.90
13854;DHT22;6997;51.782;8.824;2023-01-19T14:02:56;1.60;99.90
13854;DHT22;6997;51.782;8.824;2023-01-19T14:05:42;1.50;99.90
13854;DHT22;6997;51.782;8.824;2023-01-19T14:08:13;1.50;99.90
13854;DHT22;6997;51.782;8.824;2023-01-19T14:13:24;1.40;99.90
13854;DHT22;6997;51.782;8.824;2023-01-19T14:16:05;1.40;99.90
13854;DHT22;6997;51.782;8.824;2023-01-19T14:18:35;1.50;99.90
13854;DHT22;6997;51.782;8.824;2023-01-19T14:21:03;1.50;99.90
13854;DHT22;6997;51.782;8.824;2023-01-19T14:28:33;1.50;99.90
13854;DHT22;6997;51.782;8.824;2023-01-19T14:31:18;1.40;99.90
13854;DHT22;6997;51.782;8.824;2023-01-19T14:33:49;1.40;99.90
13854;DHT22;6997;51.782;8.824;2023-01-19T14:36:26;1.50;99.90
13854;DHT22;6997;51.782;8.824;2023-01-19T14:38:55;1.40;99.90
13854;DHT22;6997;51.782;8.824;2023-01-19T14:41:38;1.40;99.90
13854;DHT22;6997;51.782;8.824;2023-01-19T14:44:25;1.50;99.90
13854;DHT22;6997;51.782;8.824;2023-01-19T14:46:54;1.50;99.90
13854;DHT22;6997;51.782;8.824;2023-01-19T14:49:45;1.50;99.90
13854;DHT22;6997;51.782;8.824;2023-01-19T14:52:25;1.50;99.90
13854;DHT22;6997;51.782;8.824;2023-01-19T14:54:57;1.50;99.90
13854;DHT22;6997;51.782;8.824;2023-01-19T14:57:24;1.50;99.90
13854;DHT22;6997;51.782;8.824;2023-01-19T15:04:44;1.60;99.90
13854;DHT22;6997;51.782;8.824;2023-01-19T15:07:19;1.60;99.90
13854;DHT22;6997;51.782;8.824;2023-01-19T15:09:47;1.60;99.90
13854;DHT22;6997;51.782;8.824;2023-01-19T15:12:19;1.60;99.90
13854;DHT22;6997;51.782;8.824;2023-01-19T15:14:48;1.50;99.90
13854;DHT22;6997;51.782;8.824;2023-01-19T15:17:21;1.60;99.90
13854;DHT22;6997;51.782;8.824;2023-01-19T15:19:53;1.60;99.90
13854;DHT22;6997;51.782;8.824;2023-01-19T15:22:20;1.50;99.90
13854;DHT22;6997;51.782;8.824;2023-01-19T15:24:48;1.50;99.90
13854;DHT22;6997;51.782;8.824;2023-01-19T15:27:15;1.50;99.90
13854;DHT22;6997;51.782;8.824;2023-01-19T15:29:41;1.50;99.90
13854;DHT22;6997;51.782;8.824;2023-01-19T15:32:13;1.40;99.90
13854;DHT22;6997;51.782;8.824;2023-01-19T15:34:40;1.50;99.90
13854;DHT22;6997;51.782;8.824;2023-01-19T15:37:09;1.50;99.90
13854;DHT22;6997;51.782;8.824;2023-01-19T15:39:34;1.50;99.90
13854;DHT22;6997;51.782;8.824;2023-01-19T15:46:57;1.40;99.90
13854;DHT22;6997;51.782;8.824;2023-01-19T15:49:24;1.40;99.90
13854;DHT22;6997;51.782;8.824;2023-01-19T15:51:52;1.40;99.90
13854;DHT22;6997;51.782;8.824;2023-01-19T15:54:18;1.40;99.90
13854;DHT22;6997;51.782;8.824;2023-01-19T15:56:45;1.40;99.90
13854;DHT22;6997;51.782;8.824;2023-01-19T15:59:11;1.40;99.90
13854;DHT22;6997;51.782;8.824;2023-01-19T16:01:39;1.30;99.90
13854;DHT22;6997;51.782;8.824;2023-01-19T16:04:06;1.30;99.90
13854;DHT22;6997;51.782;8.824;2023-01-19T16:06:36;1.40;99.90
13854;DHT22;6997;51.782;8.824;2023-01-19T16:11:32;1.40;99.90
13854;DHT22;6997;51.782;8.824;2023-01-19T16:13:59;1.30;99.90
13854;DHT22;6997;51.782;8.824;2023-01-19T16:16:29;1.30;99.90
13854;DHT22;6997;51.782;8.824;2023-01-19T16:18:55;1.30;99.90
13854;DHT22;6997;51.782;8.824;2023-01-19T16:21:22;1.40;99.90
13854;DHT22;6997;51.782;8.824;2023-01-19T16:23:48;1.30;99.90
13854;DHT22;6997;51.782;8.824;2023-01-19T16:29:01;1.30;99.90
13854;DHT22;6997;51.782;8.824;2023-01-19T16:31:35;1.30;99.90
13854;DHT22;6997;51.782;8.824;2023-01-19T16:34:02;1.30;99.90
13854;DHT22;6997;51.782;8.824;2023-01-19T16:36:30;1.30;99.90
13854;DHT22;6997;51.782;8.824;2023-01-19T16:39:01;1.30;99.90
13854;DHT22;6997;51.782;8.824;2023-01-19T16:41:28;1.30;99.90
13854;DHT22;6997;51.782;8.824;2023-01-19T16:43:56;1.30;99.90
13854;DHT22;6997;51.782;8.824;2023-01-19T16:46:34;1.30;99.90
13854;DHT22;6997;51.782;8.824;2023-01-19T16:49:05;1.30;99.90
13854;DHT22;6997;51.782;8.824;2023-01-19T16:51:33;1.30;99.90
13854;DHT22;6997;51.782;8.824;2023-01-19T16:53:59;1.20;99.90
13854;DHT22;6997;51.782;8.824;2023-01-19T16:58:58;1.20;99.90
13854;DHT22;6997;51.782;8.824;2023-01-19T17:01:26;1.30;99.90
13854;DHT22;6997;51.782;8.824;2023-01-19T17:03:53;1.30;99.90
13854;DHT22;6997;51.782;8.824;2023-01-19T17:06:21;1.30;99.90
13854;DHT22;6997;51.782;8.824;2023-01-19T17:08:48;1.20;99.90
13854;DHT22;6997;51.782;8.824;2023-01-19T17:11:33;1.20;99.90
13854;DHT22;6997;51.782;8.824;2023-01-19T17:14:02;1.30;99.90
13854;DHT22;6997;51.782;8.824;2023-01-19T17:16:30;1.30;99.90
13854;DHT22;6997;51.782;8.824;2023-01-19T17:18:57;1.20;99.90
13854;DHT22;6997;51.782;8.824;2023-01-19T17:21:24;1.20;99.90
13854;DHT22;6997;51.782;8.824;2023-01-19T17:23:51;1.30;99.90
13854;DHT22;6997;51.782;8.824;2023-01-19T17:26:19;1.30;99.90
13854;DHT22;6997;51.782;8.824;2023-01-19T17:28:46;1.30;99.90
13854;DHT22;6997;51.782;8.824;2023-01-19T17:31:21;1.40;99.90
13854;DHT22;6997;51.782;8.824;2023-01-19T17:33:48;1.40;99.90
13854;DHT22;6997;51.782;8.824;2023-01-19T17:36:19;1.40;99.90
13854;DHT22;6997;51.782;8.824;2023-01-19T17:38:51;1.30;99.90
13854;DHT22;6997;51.782;8.824;2023-01-19T17:41:23;1.40;99.90
13854;DHT22;6997;51.782;8.824;2023-01-19T17:43:50;1.30;99.90
13854;DHT22;6997;51.782;8.824;2023-01-19T17:46:19;1.30;99.90
13854;DHT22;6997;51.782;8.824;2023-01-19T17:48:54;1.30;99.90
13854;DHT22;6997;51.782;8.824;2023-01-19T17:51:21;1.30;99.90
13854;DHT22;6997;51.782;8.824;2023-01-19T17:53:48;1.30;99.90
13854;DHT22;6997;51.782;8.824;2023-01-19T17:56:17;1.20;99.90
13854;DHT22;6997;51.782;8.824;2023-01-19T17:58:48;1.40;99.90
13854;DHT22;6997;51.782;8.824;2023-01-19T18:01:18;1.30;99.90
13854;DHT22;6997;51.782;8.824;2023-01-19T18:03:45;1.30;99.90
13854;DHT22;6997;51.782;8.824;2023-01-19T18:06:12;1.20;99.90
13854;DHT22;6997;51.782;8.824;2023-01-19T18:08:39;1.20;99.90
13854;DHT22;6997;51.782;8.824;2023-01-19T18:11:07;1.20;99.90
13854;DHT22;6997;51.782;8.824;2023-01-19T18:13:33;1.20;99.90
13854;DHT22;6997;51.782;8.824;2023-01-19T18:16:08;1.20;99.90
13854;DHT22;6997;51.782;8.824;2023-01-19T18:18:36;1.10;99.90
13854;DHT22;6997;51.782;8.824;2023-01-19T18:21:04;1.10;99.90
13854;DHT22;6997;51.782;8.824;2023-01-19T18:26:02;1.10;99.90
13854;DHT22;6997;51.782;8.824;2023-01-19T18:35:56;1.00;99.90
13854;DHT22;6997;51.782;8.824;2023-01-19T18:38:26;1.00;99.90
13854;DHT22;6997;51.782;8.824;2023-01-19T18:41:19;1.00;99.90
13854;DHT22;6997;51.782;8.824;2023-01-19T18:43:46;1.00;99.90
13854;DHT22;6997;51.782;8.824;2023-01-19T18:46:13;1.00;99.90
13854;DHT22;6997;51.782;8.824;2023-01-19T18:51:07;1.00;99.90
13854;DHT22;6997;51.782;8.824;2023-01-19T18:56:00;0.90;99.90
13854;DHT22;6997;51.782;8.824;2023-01-19T19:00:57;0.90;99.90
13854;DHT22;6997;51.782;8.824;2023-01-19T19:03:24;0.90;99.90
13854;DHT22;6997;51.782;8.824;2023-01-19T19:05:49;0.90;99.90
13854;DHT22;6997;51.782;8.824;2023-01-19T19:08:15;0.90;99.90
13854;DHT22;6997;51.782;8.824;2023-01-19T19:10:43;0.90;99.90
13854;DHT22;6997;51.782;8.824;2023-01-19T19:13:14;0.90;99.90
13854;DHT22;6997;51.782;8.824;2023-01-19T19:15:42;0.90;99.90
13854;DHT22;6997;51.782;8.824;2023-01-19T19:18:09;0.90;99.90
13854;DHT22;6997;51.782;8.824;2023-01-19T19:20:37;0.90;99.90
13854;DHT22;6997;51.782;8.824;2023-01-19T19:25:31;0.90;99.90
13854;DHT22;6997;51.782;8.824;2023-01-19T19:32:55;1.00;99.90
13854;DHT22;6997;51.782;8.824;2023-01-19T19:35:22;1.00;99.90
13854;DHT22;6997;51.782;8.824;2023-01-19T19:40:14;0.90;99.90
13854;DHT22;6997;51.782;8.824;2023-01-19T19:45:07;1.00;99.90
13854;DHT22;6997;51.782;8.824;2023-01-19T19:49:59;0.90;99.90
13854;DHT22;6997;51.782;8.824;2023-01-19T19:57:19;0.80;99.90
13854;DHT22;6997;51.782;8.824;2023-01-19T19:59:45;0.90;99.90
13854;DHT22;6997;51.782;8.824;2023-01-19T20:02:11;0.90;99.90
13854;DHT22;6997;51.782;8.824;2023-01-19T20:04:37;0.90;99.90
13854;DHT22;6997;51.782;8.824;2023-01-19T20:07:03;0.90;99.90
13854;DHT22;6997;51.782;8.824;2023-01-19T20:09:28;0.90;99.90
13854;DHT22;6997;51.782;8.824;2023-01-19T20:14:20;0.80;99.90
13854;DHT22;6997;51.782;8.824;2023-01-19T20:16:46;0.70;99.90
13854;DHT22;6997;51.782;8.824;2023-01-19T20:19:13;0.70;99.90
13854;DHT22;6997;51.782;8.824;2023-01-19T20:21:40;0.70;99.90
13854;DHT22;6997;51.782;8.824;2023-01-19T20:24:17;0.60;99.90
13854;DHT22;6997;51.782;8.824;2023-01-19T20:26:48;0.60;99.90
13854;DHT22;6997;51.782;8.824;2023-01-19T20:31:56;0.60;99.90
13854;DHT22;6997;51.782;8.824;2023-01-19T20:34:25;0.60;99.90
13854;DHT22;6997;51.782;8.824;2023-01-19T20:36:52;0.60;99.90
13854;DHT22;6997;51.782;8.824;2023-01-19T20:39:19;0.60;99.90
13854;DHT22;6997;51.782;8.824;2023-01-19T20:41:45;0.60;99.90
13854;DHT22;6997;51.782;8.824;2023-01-19T20:44:15;0.60;99.90
13854;DHT22;6997;51.782;8.824;2023-01-19T20:46:42;0.60;99.90
13854;DHT22;6997;51.782;8.824;2023-01-19T20:49:08;0.60;99.90
13854;DHT22;6997;51.782;8.824;2023-01-19T20:51:34;0.60;99.90
13854;DHT22;6997;51.782;8.824;2023-01-19T20:54:06;0.60;99.90
13854;DHT22;6997;51.782;8.824;2023-01-19T20:58:57;0.60;99.90
13854;DHT22;6997;51.782;8.824;2023-01-19T21:01:24;0.60;99.90
13854;DHT22;6997;51.782;8.824;2023-01-19T21:03:50;0.60;99.90
13854;DHT22;6997;51.782;8.824;2023-01-19T21:06:17;0.60;99.90
13854;DHT22;6997;51.782;8.824;2023-01-19T21:11:10;0.60;99.90
13854;DHT22;6997;51.782;8.824;2023-01-19T21:13:39;0.60;99.90
13854;DHT22;6997;51.782;8.824;2023-01-19T21:16:05;0.70;99.90
13854;DHT22;6997;51.782;8.824;2023-01-19T21:18:31;0.70;99.90
13854;DHT22;6997;51.782;8.824;2023-01-19T21:20:57;0.70;99.90
13854;DHT22;6997;51.782;8.824;2023-01-19T21:23:24;0.60;99.90
13854;DHT22;6997;51.782;8.824;2023-01-19T21:25:57;0.60;99.90
13854;DHT22;6997;51.782;8.824;2023-01-19T21:28:25;0.60;99.90
13854;DHT22;6997;51.782;8.824;2023-01-19T21:30:52;0.70;99.90
13854;DHT22;6997;51.782;8.824;2023-01-19T21:33:19;0.70;99.90
13854;DHT22;6997;51.782;8.824;2023-01-19T21:35:52;0.70;99.90
13854;DHT22;6997;51.782;8.824;2023-01-19T21:38:18;0.70;99.90
13854;DHT22;6997;51.782;8.824;2023-01-19T21:40:44;0.70;99.90
13854;DHT22;6997;51.782;8.824;2023-01-19T21:43:10;0.70;99.90
13854;DHT22;6997;51.782;8.824;2023-01-19T21:45:40;0.60;99.90
13854;DHT22;6997;51.782;8.824;2023-01-19T21:48:07;0.70;99.90
13854;DHT22;6997;51.782;8.824;2023-01-19T21:53:00;0.70;99.90
13854;DHT22;6997;51.782;8.824;2023-01-19T21:57:53;0.70;99.90
13854;DHT22;6997;51.782;8.824;2023-01-19T22:00:19;0.70;99.90
13854;DHT22;6997;51.782;8.824;2023-01-19T22:05:12;0.60;99.90
13854;DHT22;6997;51.782;8.824;2023-01-19T22:07:38;0.70;99.90